»·PEaware :: N9841Q KDTA-KLAS

N9841Q :: KDTA-KLAS

FLIGHT INFORMATION

Flight Status: Arrived
Operator: Privately registered:
United States
More flights under this callsign
Pilot: Jimmy H. (16574)
Aircraft: PIPER PA-18 SUPER CUB
(PA18)
More flights by this aircraft type
Origin: KDTA Delta Mun
United States
Destination: KLAS McCarran Intl
United States
More flights between these airports :: More routes between these airports
Route: +DTA V21 MLF V21 MMM LAS
File this flight plan on PilotEdge
Remarks:
Altitude:
(Current/Filed)
10,000ft
Speed:
(Current/Filed)
120kts
Departed: 02-Jan-19 02:21 PM
Arrived: 02-Jan-19 04:15 PM
Distance/Time
Traveled:
235nm/1:54
Distance/Time
To Go:
Arrived

Flight Plot

Page will automatically refresh every two minutes.

Flight plan parsing failed; only flown route is shown


Map Options




Map Legend


Flown Route
Filed Route
Departure Airport
Arrival Airport
Navaid (VOR, NDB)
Fix

Horizontal Profiles

Position Reports

Time Latitude Longitude Heading Altitude Ground
Speed
02-Jan-19 14:12 39.386167 -112.512826 219 4755ft 0kts
02-Jan-19 14:13 39.386167 -112.512826 219 4755ft 0kts
02-Jan-19 14:14 39.385035 -112.512178 132 4757ft 7kts
02-Jan-19 14:15 39.385129 -112.510007 44 4758ft 11kts
02-Jan-19 14:16 39.386886 -112.507751 42 4761ft 8kts
02-Jan-19 14:17 39.389211 -112.504699 45 4757ft 11kts
02-Jan-19 14:18 39.390521 -112.503011 44 4757ft 0kts
02-Jan-19 14:19 39.390609 -112.502170 182 4758ft 10kts
02-Jan-19 14:20 39.368683 -112.503556 185 5291ft 96kts
02-Jan-19 14:21 39.343569 -112.504916 186 6271ft 89kts
02-Jan-19 14:22 39.317963 -112.505295 184 7212ft 96kts
02-Jan-19 14:23 39.291653 -112.511697 206 8117ft 99kts
02-Jan-19 14:24 39.265549 -112.525751 205 9022ft 105kts
02-Jan-19 14:25 39.238255 -112.540565 203 9928ft 108kts
02-Jan-19 14:26 39.210181 -112.555816 203 10830ft 112kts
02-Jan-19 14:27 39.181055 -112.571672 203 11668ft 116kts
02-Jan-19 14:28 39.149803 -112.588685 203 12001ft 128kts
02-Jan-19 14:29 39.115783 -112.607196 203 11996ft 134kts
02-Jan-19 14:30 39.081359 -112.625903 203 11996ft 134kts
02-Jan-19 14:31 39.046998 -112.644555 203 11997ft 134kts
02-Jan-19 14:32 39.012519 -112.663181 203 11996ft 134kts
02-Jan-19 14:33 38.978089 -112.681889 203 11996ft 134kts
02-Jan-19 14:34 38.943616 -112.700556 203 11996ft 134kts
02-Jan-19 14:35 38.909103 -112.719216 203 11997ft 134kts
02-Jan-19 14:36 38.875254 -112.737496 203 11991ft 134kts
02-Jan-19 14:37 38.840981 -112.755994 203 11956ft 134kts
02-Jan-19 14:38 38.807174 -112.774205 203 11946ft 131kts
02-Jan-19 14:39 38.773506 -112.792327 203 11947ft 131kts
02-Jan-19 14:40 38.739691 -112.810553 202 11946ft 133kts
02-Jan-19 14:41 38.705299 -112.829000 202 11947ft 135kts
02-Jan-19 14:42 38.670677 -112.847570 202 11947ft 135kts
02-Jan-19 14:43 38.636170 -112.866067 202 11947ft 135kts
02-Jan-19 14:44 38.601554 -112.884604 202 11947ft 135kts
02-Jan-19 14:45 38.566921 -112.903131 202 11948ft 135kts
02-Jan-19 14:46 38.532337 -112.921612 202 11948ft 135kts
02-Jan-19 14:47 38.497709 -112.940098 202 11948ft 135kts
02-Jan-19 14:48 38.463025 -112.958595 202 11948ft 135kts
02-Jan-19 14:49 38.431942 -112.975155 202 11948ft 135kts
02-Jan-19 14:50 38.397471 -112.993500 202 11995ft 135kts
02-Jan-19 14:51 38.362949 -113.011883 204 11994ft 135kts
02-Jan-19 14:52 38.330993 -113.037259 213 11995ft 135kts
02-Jan-19 14:53 38.299434 -113.062877 214 11995ft 135kts
02-Jan-19 14:54 38.267878 -113.088522 214 11995ft 135kts
02-Jan-19 14:55 38.236242 -113.114258 213 11996ft 136kts
02-Jan-19 14:56 38.204367 -113.140095 213 11996ft 136kts
02-Jan-19 14:57 38.172533 -113.165894 213 11996ft 136kts
02-Jan-19 14:58 38.140675 -113.191691 213 11996ft 136kts
02-Jan-19 14:59 38.108924 -113.217376 213 11996ft 136kts
02-Jan-19 15:00 38.077015 -113.243162 213 11997ft 136kts
02-Jan-19 15:01 38.045101 -113.268919 213 11983ft 136kts
02-Jan-19 15:02 38.013285 -113.294578 213 11996ft 134kts
02-Jan-19 15:03 37.981569 -113.320131 213 11997ft 135kts
02-Jan-19 15:04 37.949912 -113.345607 213 11997ft 135kts
02-Jan-19 15:05 37.918113 -113.371172 213 11998ft 135kts
02-Jan-19 15:06 37.888075 -113.395293 213 11993ft 135kts
02-Jan-19 15:07 37.856373 -113.420725 213 11993ft 135kts
02-Jan-19 15:08 37.824766 -113.446056 213 11993ft 135kts
02-Jan-19 15:09 37.793078 -113.471426 213 11993ft 135kts
02-Jan-19 15:10 37.761485 -113.496695 213 11994ft 135kts
02-Jan-19 15:11 37.729657 -113.522153 212 11994ft 136kts
02-Jan-19 15:12 37.697596 -113.547722 212 11994ft 137kts
02-Jan-19 15:13 37.665482 -113.573323 212 11994ft 137kts
02-Jan-19 15:14 37.633354 -113.598912 212 11995ft 137kts
02-Jan-19 15:15 37.601223 -113.624479 212 11995ft 137kts
02-Jan-19 15:16 37.568947 -113.650134 212 11995ft 137kts
02-Jan-19 15:17 37.537313 -113.675256 211 11984ft 137kts
02-Jan-19 15:18 37.505098 -113.700807 211 11984ft 136kts
02-Jan-19 15:19 37.472996 -113.726244 211 11984ft 137kts
02-Jan-19 15:20 37.440880 -113.751666 212 11984ft 137kts
02-Jan-19 15:21 37.408799 -113.777019 212 11992ft 136kts
02-Jan-19 15:22 37.376685 -113.802402 212 11994ft 136kts
02-Jan-19 15:23 37.344510 -113.827796 212 11994ft 136kts
02-Jan-19 15:24 37.312415 -113.853098 212 11995ft 136kts
02-Jan-19 15:25 37.280277 -113.878409 212 11995ft 136kts
02-Jan-19 15:26 37.248138 -113.903694 212 11995ft 137kts
02-Jan-19 15:27 37.215814 -113.929090 213 11995ft 138kts
02-Jan-19 15:28 37.183319 -113.954610 213 11996ft 138kts
02-Jan-19 15:29 37.150785 -113.980129 213 11996ft 138kts
02-Jan-19 15:30 37.118269 -114.005606 213 11996ft 138kts
02-Jan-19 15:31 37.085715 -114.031087 213 11996ft 138kts
02-Jan-19 15:32 37.053184 -114.056524 213 11997ft 138kts
02-Jan-19 15:33 37.020602 -114.081974 213 11997ft 138kts
02-Jan-19 15:34 36.988050 -114.107375 213 11997ft 138kts
02-Jan-19 15:35 36.955352 -114.132863 213 11997ft 138kts
02-Jan-19 15:36 36.922758 -114.158245 213 11998ft 138kts
02-Jan-19 15:37 36.891763 -114.182358 213 11992ft 138kts
02-Jan-19 15:38 36.859529 -114.207407 213 11992ft 137kts
02-Jan-19 15:39 36.827089 -114.232592 213 11992ft 137kts
02-Jan-19 15:40 36.794670 -114.257758 212 11993ft 135kts
02-Jan-19 15:41 36.764186 -114.284505 228 11994ft 133kts
02-Jan-19 15:42 36.738286 -114.317623 230 11994ft 135kts
02-Jan-19 15:43 36.712035 -114.351576 230 11994ft 136kts
02-Jan-19 15:44 36.685943 -114.385318 230 12021ft 136kts
02-Jan-19 15:45 36.659733 -114.419184 230 12021ft 136kts
02-Jan-19 15:47 36.633355 -114.453238 230 11997ft 137kts
02-Jan-19 15:48 36.606962 -114.487265 230 11994ft 136kts
02-Jan-19 15:49 36.580719 -114.521070 230 11994ft 136kts
02-Jan-19 15:50 36.554390 -114.554948 230 11995ft 136kts
02-Jan-19 15:51 36.528048 -114.588810 230 11995ft 136kts
02-Jan-19 15:52 36.501652 -114.622704 230 11995ft 136kts
02-Jan-19 15:53 36.475576 -114.656160 229 11994ft 136kts
02-Jan-19 15:54 36.449201 -114.689951 229 11993ft 136kts
02-Jan-19 15:55 36.422865 -114.723664 229 11994ft 136kts
02-Jan-19 15:56 36.396544 -114.757366 229 11995ft 134kts
02-Jan-19 15:57 36.370760 -114.790269 229 11994ft 132kts
02-Jan-19 15:58 36.343535 -114.819937 209 11939ft 124kts
02-Jan-19 15:59 36.312722 -114.841580 210 11373ft 130kts
02-Jan-19 16:00 36.281095 -114.863818 210 10580ft 131kts
02-Jan-19 16:01 36.249640 -114.885717 210 9696ft 130kts
02-Jan-19 16:02 36.217666 -114.907652 210 8621ft 132kts
02-Jan-19 16:03 36.185936 -114.929477 210 7533ft 130kts
02-Jan-19 16:04 36.154585 -114.951123 210 6445ft 129kts
02-Jan-19 16:05 36.124134 -114.972218 210 5597ft 121kts
02-Jan-19 16:06 36.096260 -114.994775 232 5502ft 124kts
02-Jan-19 16:06 36.076778 -115.021054 230 5505ft 125kts
02-Jan-19 16:08 36.049436 -115.057921 229 5485ft 125kts
02-Jan-19 16:08 36.030322 -115.083244 233 5333ft 119kts
02-Jan-19 16:09 36.019976 -115.117988 265 4816ft 103kts
02-Jan-19 16:11 36.018423 -115.155476 284 4517ft 92kts
02-Jan-19 16:11 36.025140 -115.179914 304 4215ft 92kts
02-Jan-19 16:12 36.043964 -115.187866 23 3608ft 72kts
02-Jan-19 16:13 36.059309 -115.179531 25 2984ft 47kts
02-Jan-19 16:14 36.070271 -115.173283 25 2430ft 39kts
02-Jan-19 16:15 36.079463 -115.167985 30 2166ft 27kts
02-Jan-19 16:16 36.082407 -115.167404 293 2157ft 0kts
02-Jan-19 16:17 36.082407 -115.167404 293 2157ft 0kts
02-Jan-19 16:18 36.082648 -115.168560 216 2161ft 12kts
02-Jan-19 16:19 36.080558 -115.171023 123 2170ft 0kts

Navigation Log

Ident Type
Flight plan parsing failed, navigation log unavailable